createdAt,value
2019-04-24T00:08:13.709Z,5.40
2019-04-24T00:13:19.152Z,4.67
2019-04-24T00:15:51.313Z,5.30
2019-04-24T00:18:44.783Z,5.00
2019-04-24T00:20:59.828Z,4.73
2019-04-24T00:23:28.209Z,5.80
2019-04-24T00:25:51.554Z,5.93
2019-04-24T00:28:16.318Z,4.57
2019-04-24T00:30:58.824Z,5.50
2019-04-24T00:33:27.422Z,4.93
2019-04-24T00:40:59.665Z,6.47
2019-04-24T00:43:31.810Z,4.97
2019-04-24T00:45:50.860Z,5.50
2019-04-24T00:50:56.266Z,6.07
2019-04-24T00:55:47.366Z,6.50
2019-04-24T00:58:11.614Z,5.70
2019-04-24T01:00:50.316Z,6.60
2019-04-24T01:13:28.068Z,5.80
2019-04-24T01:16:13.461Z,5.80
2019-04-24T01:18:29.552Z,6.40
2019-04-24T01:21:02.697Z,7.37
2019-04-24T01:23:18.718Z,5.37
2019-04-24T01:28:44.830Z,6.50
2019-04-24T01:31:06.207Z,6.70
2019-04-24T01:33:26.070Z,6.30
2019-04-24T01:36:09.243Z,6.47
2019-04-24T01:38:35.869Z,6.10
2019-04-24T01:41:07.453Z,6.70
2019-04-24T01:46:10.300Z,5.87
2019-04-24T01:48:36.432Z,6.13
2019-04-24T01:56:03.155Z,6.73
2019-04-24T01:58:27.143Z,6.47
2019-04-24T02:03:23.618Z,6.67
2019-04-24T02:06:00.954Z,6.57
2019-04-24T02:08:31.228Z,6.90
2019-04-24T02:11:22.897Z,6.27
2019-04-24T02:14:04.094Z,7.13
2019-04-24T02:16:13.874Z,7.23
2019-04-24T02:21:13.116Z,6.67
2019-04-24T02:23:39.579Z,6.60
2019-04-24T02:28:37.372Z,7.47
2019-04-24T02:31:23.087Z,6.70
2019-04-24T02:34:00.701Z,7.00
2019-04-24T02:36:35.841Z,6.63
2019-04-24T02:41:34.939Z,6.63
2019-04-24T02:46:24.428Z,6.33
2019-04-24T02:51:43.416Z,6.33
2019-04-24T02:53:47.734Z,6.07
2019-04-24T02:56:26.102Z,6.90
2019-04-24T02:58:57.124Z,7.93
2019-04-24T03:03:54.237Z,6.63
2019-04-24T03:06:23.191Z,7.00
2019-04-24T03:11:19.322Z,6.63
2019-04-24T03:24:21.307Z,7.13
2019-04-24T03:27:02.353Z,7.20
2019-04-24T03:29:19.747Z,7.37
2019-04-24T03:32:07.208Z,6.97
2019-04-24T03:46:32.744Z,7.17
2019-04-24T03:56:41.335Z,6.70
2019-04-24T04:07:04.625Z,7.13
2019-04-24T04:09:39.679Z,5.47
2019-04-24T04:16:56.704Z,6.30
2019-04-24T04:24:40.654Z,6.40
2019-04-24T04:27:22.109Z,6.93
2019-04-24T04:32:28.833Z,6.45
2019-04-24T04:40:05.721Z,7.12
2019-04-24T04:42:47.042Z,7.60
2019-04-24T04:45:06.111Z,5.60
2019-04-24T04:53:12.134Z,7.40
2019-04-24T04:56:06.611Z,5.90
2019-04-24T05:00:41.941Z,6.97
2019-04-24T05:08:23.220Z,5.80
2019-04-24T05:10:22.202Z,6.53
2019-04-24T05:15:23.819Z,5.33
2019-04-24T05:20:22.746Z,5.03
2019-04-24T05:22:37.987Z,15.00
2019-04-24T05:25:27.730Z,34.70
2019-04-24T05:27:43.036Z,29.73
2019-04-24T05:30:21.987Z,15.60
2019-04-24T05:33:17.105Z,8.20
2019-04-24T05:38:04.576Z,9.07
2019-04-24T05:40:45.497Z,5.50
2019-04-24T05:43:17.926Z,5.03
2019-04-24T05:51:06.875Z,5.23
2019-04-24T05:56:26.530Z,5.80
2019-04-24T05:58:55.888Z,5.43
2019-04-24T06:02:09.953Z,5.20
2019-04-24T06:09:22.286Z,5.80
2019-04-24T06:11:59.341Z,5.07
2019-04-24T06:14:31.481Z,4.83
2019-04-24T06:17:10.576Z,4.73
2019-04-24T06:19:49.891Z,4.70
2019-04-24T06:22:09.889Z,5.57
2019-04-24T06:34:40.816Z,5.00
2019-04-24T06:37:25.753Z,4.97
2019-04-24T06:40:08.171Z,4.40
2019-04-24T06:42:33.878Z,5.80
2019-04-24T06:49:56.303Z,5.30
2019-04-24T06:52:40.659Z,4.80
2019-04-24T06:54:50.481Z,5.40
2019-04-24T06:57:32.520Z,5.37
2019-04-24T06:59:54.093Z,4.80
2019-04-24T07:02:35.053Z,4.50
2019-04-24T07:05:14.549Z,5.13
2019-04-24T07:10:21.569Z,5.33
2019-04-24T07:15:22.189Z,4.83
2019-04-24T07:17:59.447Z,3.80
2019-04-24T07:20:17.893Z,3.80
2019-04-24T07:23:05.431Z,4.13
2019-04-24T07:25:52.793Z,3.70
2019-04-24T07:28:21.180Z,3.93
2019-04-24T07:30:41.090Z,3.93
2019-04-24T07:33:12.971Z,3.97
2019-04-24T07:35:53.041Z,3.73
2019-04-24T07:40:56.813Z,3.37
2019-04-24T07:43:20.778Z,4.20
2019-04-24T07:48:11.626Z,4.60
2019-04-24T07:50:59.433Z,3.73
2019-04-24T07:53:48.772Z,4.00
2019-04-24T07:56:34.787Z,4.00
2019-04-24T07:58:49.331Z,3.90
2019-04-24T08:01:13.954Z,3.20
2019-04-24T08:03:51.643Z,3.73
2019-04-24T08:06:11.454Z,2.93
2019-04-24T08:09:57.096Z,3.53
2019-04-24T08:11:32.767Z,2.43
2019-04-24T08:13:58.947Z,2.87
2019-04-24T08:16:14.981Z,3.90
2019-04-24T08:18:40.769Z,2.87
2019-04-24T08:21:06.823Z,3.10
2019-04-24T08:23:44.483Z,3.03
2019-04-24T08:26:11.558Z,2.93
2019-04-24T08:28:50.630Z,2.20
2019-04-24T08:34:05.150Z,2.33
2019-04-24T08:36:09.023Z,2.33
2019-04-24T08:41:35.018Z,2.50
2019-04-24T08:43:58.405Z,2.70
2019-04-24T08:49:12.562Z,2.10
2019-04-24T08:51:43.130Z,2.60
2019-04-24T08:59:59.197Z,2.43
2019-04-24T09:02:28.017Z,2.53
2019-04-24T09:05:00.238Z,3.17
2019-04-24T09:07:23.522Z,2.43
2019-04-24T09:10:38.933Z,2.07
2019-04-24T09:15:27.152Z,2.53
2019-04-24T09:17:52.335Z,1.40
2019-04-24T09:20:24.138Z,1.90
2019-04-24T09:23:20.166Z,2.20
2019-04-24T09:25:44.518Z,2.37
2019-04-24T09:33:17.277Z,3.03
2019-04-24T09:36:10.969Z,2.20
2019-04-24T09:38:21.005Z,2.20
2019-04-24T09:45:50.017Z,3.10
2019-04-24T09:48:45.214Z,2.70
2019-04-24T09:50:51.187Z,2.17
2019-04-24T09:53:42.222Z,2.77
2019-04-24T09:55:46.353Z,2.37
2019-04-24T10:01:18.871Z,2.67
2019-04-24T10:03:31.397Z,2.97
2019-04-24T10:08:29.081Z,2.83
2019-04-24T10:10:58.811Z,2.90
2019-04-24T10:13:27.676Z,3.10
2019-04-24T10:16:05.710Z,2.57
2019-04-24T10:20:53.534Z,3.60
2019-04-24T10:23:44.010Z,3.57
2019-04-24T10:26:03.845Z,2.63
2019-04-24T10:31:55.949Z,2.37
2019-04-24T10:34:12.890Z,2.50
2019-04-24T10:40:09.162Z,3.07
2019-04-24T10:42:40.288Z,2.83
2019-04-24T10:44:56.199Z,3.60
2019-04-24T10:48:00.364Z,2.77
2019-04-24T10:52:41.654Z,2.83
2019-04-24T10:55:14.930Z,3.70
2019-04-24T10:57:49.443Z,2.70
2019-04-24T11:00:26.176Z,2.80
2019-04-24T11:02:50.378Z,3.13
2019-04-24T11:05:40.870Z,3.50
2019-04-24T11:08:03.987Z,3.00
2019-04-24T11:13:08.070Z,3.90
2019-04-24T11:15:33.647Z,3.27
2019-04-24T11:17:55.863Z,4.20
2019-04-24T11:20:27.681Z,3.70
2019-04-24T11:25:56.910Z,3.77
2019-04-24T11:31:11.319Z,3.90
2019-04-24T11:33:55.650Z,3.70
2019-04-24T11:36:49.106Z,4.60
2019-04-24T11:41:39.987Z,4.03
2019-04-24T11:49:37.923Z,2.50
2019-04-24T11:52:07.162Z,4.07
2019-04-24T11:54:31.859Z,3.33
2019-04-24T11:57:20.430Z,3.50
2019-04-24T11:59:26.951Z,4.03
2019-04-24T12:04:49.880Z,4.07
2019-04-24T12:07:12.076Z,4.53
2019-04-24T12:09:43.874Z,4.70
2019-04-24T12:12:09.767Z,4.40
2019-04-24T12:17:07.960Z,4.73
2019-04-24T12:19:58.697Z,3.50
2019-04-24T12:22:23.574Z,4.80
2019-04-24T12:24:49.849Z,4.23
2019-04-24T12:27:18.458Z,4.10
2019-04-24T12:32:32.676Z,4.90
2019-04-24T12:34:59.108Z,3.73
2019-04-24T12:40:07.581Z,3.40
2019-04-24T12:42:38.905Z,3.90
2019-04-24T12:44:50.394Z,3.83
2019-04-24T12:47:27.965Z,4.00
2019-04-24T12:50:06.840Z,4.20
2019-04-24T12:52:23.178Z,5.17
2019-04-24T12:55:03.888Z,4.47
2019-04-24T12:59:55.510Z,3.30
2019-04-24T13:02:53.744Z,4.07
2019-04-24T13:05:36.942Z,3.90
2019-04-24T13:08:11.618Z,3.63
2019-04-24T13:10:23.715Z,4.40
2019-04-24T13:13:34.926Z,3.60
2019-04-24T13:20:31.003Z,3.33
2019-04-24T13:23:09.421Z,3.07
2019-04-24T13:26:09.701Z,3.77
2019-04-24T13:28:39.814Z,3.70
2019-04-24T13:38:39.789Z,3.50
2019-04-24T13:43:41.838Z,3.47
2019-04-24T13:46:03.515Z,3.77
2019-04-24T13:50:57.116Z,3.20
2019-04-24T13:55:54.243Z,2.63
2019-04-24T13:58:32.294Z,3.70
2019-04-24T14:01:08.654Z,2.40
2019-04-24T14:03:36.166Z,2.80
2019-04-24T14:08:46.551Z,2.60
2019-04-24T14:11:16.998Z,3.40
2019-04-24T14:13:19.851Z,2.87
2019-04-24T14:20:54.338Z,3.30
2019-04-24T14:23:28.266Z,2.47
2019-04-24T14:25:55.798Z,2.47
2019-04-24T14:28:27.501Z,2.87
2019-04-24T14:33:39.222Z,2.27
2019-04-24T14:38:27.617Z,2.77
2019-04-24T14:46:14.322Z,3.27
2019-04-24T14:48:33.448Z,2.50
2019-04-24T14:50:52.904Z,2.73
2019-04-24T14:53:38.438Z,2.60
2019-04-24T14:56:00.646Z,2.23
2019-04-24T14:58:26.974Z,2.73
2019-04-24T15:01:10.369Z,2.40
2019-04-24T15:03:28.204Z,0.50
2019-04-24T15:06:11.788Z,0.50
2019-04-24T15:08:26.926Z,0.63
2019-04-24T15:10:58.261Z,0.60
2019-04-24T15:13:32.082Z,0.40
2019-04-24T15:16:21.494Z,0.57
2019-04-24T15:20:57.762Z,0.50
2019-04-24T15:23:35.188Z,0.50
2019-04-24T15:28:21.429Z,0.93
2019-04-24T15:30:56.339Z,0.50
2019-04-24T15:33:48.879Z,0.40
2019-04-24T15:35:53.992Z,0.60
2019-04-24T15:38:18.926Z,0.53
2019-04-24T15:40:54.258Z,0.80
2019-04-24T15:43:22.811Z,0.50
2019-04-24T15:45:54.551Z,0.60
2019-04-24T15:48:30.012Z,0.63
2019-04-24T15:50:47.265Z,0.70
2019-04-24T15:52:45.300Z,0.60
2019-04-24T15:55:14.184Z,0.40
2019-04-24T15:57:43.327Z,0.60
2019-04-24T16:00:47.363Z,0.50
2019-04-24T16:03:14.643Z,0.70
2019-04-24T16:05:10.157Z,1.10
2019-04-24T16:07:44.751Z,0.53
2019-04-24T16:10:19.655Z,0.50
2019-04-24T16:12:46.872Z,0.50
2019-04-24T16:15:50.065Z,0.40
2019-04-24T16:20:48.803Z,0.40
2019-04-24T16:23:13.120Z,0.50
2019-04-24T16:25:42.325Z,0.50
2019-04-24T16:28:18.199Z,0.63
2019-04-24T16:30:35.629Z,0.50
2019-04-24T16:33:23.524Z,2.53
2019-04-24T16:35:41.153Z,5.50
2019-04-24T16:43:21.409Z,2.60
2019-04-24T16:53:11.038Z,2.03
2019-04-24T16:55:34.280Z,1.20
2019-04-24T16:58:10.243Z,1.00
2019-04-24T17:01:14.913Z,1.37
2019-04-24T17:03:16.112Z,1.23
2019-04-24T17:10:42.302Z,1.33
2019-04-24T17:13:20.453Z,1.50
2019-04-24T17:15:29.598Z,0.93
2019-04-24T17:18:06.999Z,1.00
2019-04-24T17:20:36.995Z,1.20
2019-04-24T17:23:03.892Z,0.97
2019-04-24T17:25:58.507Z,0.80
2019-04-24T17:28:08.546Z,0.93
2019-04-24T17:30:37.498Z,1.63
2019-04-24T17:33:04.865Z,1.10
2019-04-24T17:35:31.764Z,0.70
2019-04-24T17:37:27.992Z,1.40
2019-04-24T17:39:56.858Z,0.70
2019-04-24T17:42:36.278Z,1.33
2019-04-24T17:45:22.137Z,1.00
2019-04-24T17:47:57.205Z,0.57
2019-04-24T17:50:21.745Z,1.03
2019-04-24T17:59:48.419Z,0.60
2019-04-24T18:02:21.275Z,0.80
2019-04-24T18:04:48.679Z,0.60
2019-04-24T18:07:15.891Z,0.50
2019-04-24T18:09:43.135Z,0.60
2019-04-24T18:12:12.772Z,0.53
2019-04-24T18:14:40.709Z,0.77
2019-04-24T18:17:08.798Z,0.73
2019-04-24T18:19:36.002Z,0.70
2019-04-24T18:22:03.534Z,0.50
2019-04-24T18:24:38.223Z,0.50
2019-04-24T18:27:07.082Z,0.60
2019-04-24T18:29:34.306Z,0.50
2019-04-24T18:32:01.597Z,0.57
2019-04-24T18:34:28.813Z,0.73
2019-04-24T18:36:56.047Z,0.50
2019-04-24T18:39:23.334Z,0.50
2019-04-24T18:41:51.411Z,0.40
2019-04-24T18:44:18.850Z,1.17
2019-04-24T18:46:46.063Z,0.40
2019-04-24T18:49:13.880Z,0.40
2019-04-24T18:51:41.982Z,0.53
2019-04-24T18:54:09.452Z,0.30
2019-04-24T18:56:36.670Z,0.43
2019-04-24T18:59:03.891Z,0.30
2019-04-24T19:01:31.098Z,0.50
2019-04-24T19:03:58.330Z,0.47
2019-04-24T19:06:31.399Z,0.50
2019-04-24T19:08:55.467Z,0.40
2019-04-24T19:11:22.679Z,0.50
2019-04-24T19:13:51.280Z,0.50
2019-04-24T19:16:18.851Z,0.93
2019-04-24T19:18:46.097Z,0.40
2019-04-24T19:21:13.301Z,0.53
2019-04-24T19:23:41.665Z,0.50
2019-04-24T19:26:09.783Z,0.40
2019-04-24T19:28:38.312Z,0.50
2019-04-24T19:31:05.609Z,0.50
2019-04-24T19:33:32.827Z,0.40
2019-04-24T19:36:01.451Z,0.50
2019-04-24T19:38:28.839Z,0.40
2019-04-24T19:40:56.056Z,0.50
2019-04-24T19:43:23.280Z,0.40
2019-04-24T19:45:52.070Z,0.40
2019-04-24T19:48:22.321Z,0.47
2019-04-24T19:50:48.439Z,0.47
2019-04-24T19:53:20.827Z,0.40
2019-04-24T19:55:44.667Z,0.80
2019-04-24T19:58:13.136Z,0.40
2019-04-24T20:00:41.161Z,0.40
2019-04-24T20:03:08.667Z,0.50
2019-04-24T20:05:35.945Z,0.50
2019-04-24T20:08:03.657Z,0.40
2019-04-24T20:10:35.631Z,0.40
2019-04-24T20:13:02.913Z,0.43
2019-04-24T20:15:31.988Z,0.50
2019-04-24T20:17:59.382Z,0.40
2019-04-24T20:20:26.611Z,0.70
2019-04-24T20:22:53.825Z,0.70
2019-04-24T20:25:21.714Z,0.30
2019-04-24T20:27:51.401Z,0.50
2019-04-24T20:30:18.931Z,0.60
2019-04-24T20:32:46.155Z,0.40
2019-04-24T20:35:14.045Z,0.60
2019-04-24T20:37:42.078Z,0.60
2019-04-24T20:40:09.378Z,0.67
2019-04-24T20:42:36.586Z,0.50
2019-04-24T20:45:05.181Z,0.50
2019-04-24T20:47:32.395Z,0.47
2019-04-24T20:49:59.614Z,0.40
2019-04-24T20:52:26.854Z,0.90
2019-04-24T20:54:54.119Z,0.70
2019-04-24T20:57:22.140Z,0.70
2019-04-24T20:59:49.535Z,0.50
2019-04-24T21:02:16.758Z,0.70
2019-04-24T21:04:43.966Z,0.60
2019-04-24T21:07:22.889Z,0.90
2019-04-24T21:09:55.306Z,0.70
2019-04-24T21:12:23.090Z,0.70
2019-04-24T21:15:08.580Z,1.10
2019-04-24T21:17:35.795Z,0.70
2019-04-24T21:20:04.287Z,0.60
2019-04-24T21:22:31.511Z,0.80
2019-04-24T21:24:58.731Z,0.93
2019-04-24T21:27:25.953Z,0.73
2019-04-24T21:29:53.167Z,1.40
2019-04-24T21:32:21.246Z,1.60
2019-04-24T21:34:49.407Z,1.80
2019-04-24T21:37:16.706Z,1.30
2019-04-24T21:39:43.969Z,0.77
2019-04-24T21:42:11.804Z,0.57
2019-04-24T21:44:39.284Z,0.60
2019-04-24T21:47:06.530Z,0.70
2019-04-24T21:49:33.746Z,0.60
2019-04-24T21:52:00.964Z,0.63
2019-04-24T21:54:28.748Z,0.60
2019-04-24T21:56:56.126Z,0.60
2019-04-24T21:59:23.562Z,0.50
2019-04-24T22:02:09.231Z,0.60
2019-04-24T22:04:38.466Z,0.87
2019-04-24T22:07:11.439Z,0.70
2019-04-24T22:09:41.499Z,0.70
2019-04-24T22:12:08.867Z,0.50
2019-04-24T22:14:36.082Z,0.80
2019-04-24T22:17:03.379Z,0.80
2019-04-24T22:19:31.129Z,0.90
2019-04-24T22:22:01.596Z,0.67
2019-04-24T22:24:33.702Z,1.23
2019-04-24T22:27:02.235Z,0.87
2019-04-24T22:29:29.660Z,0.77
2019-04-24T22:32:02.132Z,0.70
2019-04-24T22:34:33.909Z,0.60
2019-04-24T22:37:01.455Z,0.47
2019-04-24T22:39:39.178Z,0.70
2019-04-24T22:42:06.409Z,0.80
2019-04-24T22:44:33.852Z,0.80
2019-04-24T22:47:01.202Z,0.60
2019-04-24T22:49:28.916Z,0.60
2019-04-24T22:51:56.136Z,0.50
2019-04-24T22:54:30.126Z,0.50
2019-04-24T22:56:58.622Z,0.40
2019-04-24T22:59:22.353Z,0.40
2019-04-24T23:01:58.958Z,0.73
2019-04-24T23:04:18.733Z,0.73
2019-04-24T23:06:45.996Z,0.50
2019-04-24T23:09:27.203Z,0.70
2019-04-24T23:11:54.547Z,0.93
2019-04-24T23:14:21.887Z,0.80
2019-04-24T23:16:49.135Z,0.80
2019-04-24T23:19:16.410Z,0.63
2019-04-24T23:21:54.177Z,0.70
2019-04-24T23:24:40.751Z,0.80
2019-04-24T23:27:05.243Z,0.50
2019-04-24T23:29:37.042Z,0.60
2019-04-24T23:32:05.966Z,1.10
2019-04-24T23:34:35.179Z,0.90
2019-04-24T23:37:02.694Z,0.95
2019-04-24T23:39:29.927Z,0.90
2019-04-24T23:41:57.164Z,0.80
2019-04-24T23:44:24.408Z,0.90
2019-04-24T23:46:51.704Z,0.70
2019-04-24T23:49:18.951Z,0.80
2019-04-24T23:51:46.168Z,0.60
2019-04-24T23:54:13.398Z,0.80
2019-04-24T23:56:42.036Z,0.50
2019-04-24T23:59:09.643Z,0.50
